Terminal Aerodrome Forecast
Issued by NWS

Home | Current Version | Previous Version | Text Only | Print | Product List | Glossary On
Versions: 1 2 3 4 5 6 7 8 9 10 11 12
251
FTUS42 KTBW 240534
TAFRSW
TAF
KRSW 240534Z 2406/2506 VRB03KT P6SM SKC
     FM241400 11006KT P6SM FEW040
     FM241800 22005KT P6SM SCT045
     FM242100 28008KT P6SM VCTS FEW025CB BKN060
     FM250300 VRB05KT P6SM FEW035 SCT060=

USA.gov is the U.S. government's official web portal to all federal, state and local government web resources and services.